createdAt,value
2018-12-25T00:00:26.416Z,5.47
2018-12-25T00:02:53.527Z,5.57
2018-12-25T00:05:20.647Z,5.80
2018-12-25T00:07:47.769Z,5.30
2018-12-25T00:10:14.831Z,5.77
2018-12-25T00:12:41.923Z,5.07
2018-12-25T00:15:08.982Z,5.20
2018-12-25T00:17:36.178Z,5.30
2018-12-25T00:20:03.325Z,4.47
2018-12-25T00:22:30.384Z,5.27
2018-12-25T00:24:57.463Z,5.30
2018-12-25T00:27:24.771Z,4.67
2018-12-25T00:29:51.901Z,4.57
2018-12-25T00:32:18.971Z,5.07
2018-12-25T00:34:48.608Z,5.60
2018-12-25T00:37:14.949Z,4.80
2018-12-25T00:39:42.036Z,4.77
2018-12-25T00:42:09.155Z,5.03
2018-12-25T00:44:36.208Z,4.87
2018-12-25T00:47:03.414Z,4.53
2018-12-25T00:49:30.502Z,5.10
2018-12-25T00:51:57.562Z,5.17
2018-12-25T00:54:24.652Z,5.10
2018-12-25T00:56:51.749Z,4.77
2018-12-25T00:59:19.066Z,5.03
2018-12-25T01:01:46.133Z,5.40
2018-12-25T01:04:13.331Z,4.50
2018-12-25T01:06:40.415Z,4.80
2018-12-25T01:09:07.519Z,4.80
2018-12-25T01:11:34.611Z,5.00
2018-12-25T01:14:01.726Z,4.63
2018-12-25T01:16:28.860Z,4.90
2018-12-25T01:18:55.920Z,5.27
2018-12-25T01:21:23.098Z,4.90
2018-12-25T01:23:50.206Z,5.07
2018-12-25T01:26:17.298Z,4.63
2018-12-25T01:28:44.362Z,5.60
2018-12-25T01:31:11.452Z,5.00
2018-12-25T01:33:38.555Z,4.87
2018-12-25T01:36:05.612Z,5.00
2018-12-25T01:38:32.677Z,5.10
2018-12-25T01:40:59.892Z,5.83
2018-12-25T01:43:26.972Z,5.33
2018-12-25T01:45:54.068Z,5.23
2018-12-25T01:48:21.135Z,4.80
2018-12-25T01:50:48.284Z,7.00
2018-12-25T01:53:15.354Z,5.07
2018-12-25T01:55:42.405Z,4.60
2018-12-25T01:58:09.634Z,5.00
2018-12-25T02:00:36.713Z,5.00
2018-12-25T02:03:03.774Z,5.03
2018-12-25T02:05:30.866Z,4.80
2018-12-25T02:07:58.003Z,4.93
2018-12-25T02:10:25.288Z,5.00
2018-12-25T02:12:52.354Z,4.57
2018-12-25T02:15:19.442Z,5.20
2018-12-25T02:17:46.654Z,5.03
2018-12-25T02:20:13.987Z,4.77
2018-12-25T02:22:41.055Z,4.90
2018-12-25T02:25:08.154Z,5.30
2018-12-25T02:27:35.427Z,4.60
2018-12-25T02:30:02.498Z,5.13
2018-12-25T02:32:29.591Z,4.57
2018-12-25T02:34:58.676Z,4.67
2018-12-25T02:37:25.466Z,5.20
2018-12-25T02:39:52.560Z,6.17
2018-12-25T02:42:19.615Z,5.20
2018-12-25T02:44:46.700Z,4.90
2018-12-25T02:47:13.875Z,5.57
2018-12-25T02:49:50.034Z,4.40
2018-12-25T02:52:09.864Z,4.87
2018-12-25T02:54:36.952Z,5.43
2018-12-25T02:57:04.100Z,5.10
2018-12-25T02:59:31.164Z,4.60
2018-12-25T03:01:58.247Z,4.77
2018-12-25T03:04:25.340Z,5.10
2018-12-25T03:06:52.517Z,4.37
2018-12-25T03:09:19.578Z,3.70
2018-12-25T03:11:46.800Z,4.10
2018-12-25T03:14:13.891Z,4.90
2018-12-25T03:16:40.938Z,4.53
2018-12-25T03:19:08.162Z,4.43
2018-12-25T03:21:35.224Z,4.30
2018-12-25T03:24:02.321Z,4.50
2018-12-25T03:26:29.381Z,4.07
2018-12-25T03:28:56.446Z,3.97
2018-12-25T03:31:23.588Z,4.90
2018-12-25T03:33:50.650Z,4.10
2018-12-25T03:36:17.700Z,3.50
2018-12-25T03:38:44.931Z,4.07
2018-12-25T03:41:11.999Z,3.60
2018-12-25T03:43:39.063Z,3.80
2018-12-25T03:46:06.144Z,3.10
2018-12-25T03:48:33.211Z,4.10
2018-12-25T03:51:00.383Z,3.60
2018-12-25T03:53:27.484Z,3.63
2018-12-25T03:55:54.538Z,3.60
2018-12-25T03:58:21.616Z,4.27
2018-12-25T04:00:48.986Z,3.23
2018-12-25T04:03:16.091Z,3.60
2018-12-25T04:05:43.154Z,3.80
2018-12-25T04:08:10.216Z,3.50
2018-12-25T04:10:37.369Z,3.80
2018-12-25T04:13:04.610Z,3.13
2018-12-25T04:15:31.710Z,3.30
2018-12-25T04:17:58.771Z,3.90
2018-12-25T04:20:25.824Z,3.30
2018-12-25T04:22:53.027Z,2.67
2018-12-25T04:25:20.085Z,3.00
2018-12-25T04:27:47.152Z,3.30
2018-12-25T04:30:14.383Z,3.17
2018-12-25T04:32:41.434Z,2.87
2018-12-25T04:35:08.526Z,3.30
2018-12-25T04:37:35.721Z,2.60
2018-12-25T04:40:02.838Z,2.70
2018-12-25T04:42:29.895Z,2.40
2018-12-25T04:44:56.957Z,2.73
2018-12-25T04:47:24.136Z,3.17
2018-12-25T04:49:51.248Z,2.50
2018-12-25T04:52:18.347Z,3.10
2018-12-25T04:54:45.407Z,2.63
2018-12-25T04:57:12.502Z,2.40
2018-12-25T04:59:39.550Z,2.50
2018-12-25T05:02:06.807Z,2.33
2018-12-25T05:04:33.865Z,2.53
2018-12-25T05:07:01.111Z,2.30
2018-12-25T05:09:28.213Z,2.20
2018-12-25T05:11:55.381Z,2.47
2018-12-25T05:14:22.444Z,2.30
2018-12-25T05:16:49.672Z,2.93
2018-12-25T05:19:18.868Z,2.03
2018-12-25T05:21:49.786Z,2.40
2018-12-25T05:24:21.619Z,2.40
2018-12-25T05:26:58.108Z,2.20
2018-12-25T05:29:29.202Z,2.90
2018-12-25T05:31:59.293Z,2.87
2018-12-25T05:34:37.850Z,2.20
2018-12-25T05:37:16.511Z,2.80
2018-12-25T05:39:41.513Z,2.30
2018-12-25T05:42:08.568Z,2.00
2018-12-25T05:44:35.650Z,2.43
2018-12-25T05:47:02.720Z,2.07
2018-12-25T05:49:29.776Z,2.30
2018-12-25T05:51:56.865Z,2.37
2018-12-25T05:54:23.956Z,2.30
2018-12-25T05:56:51.230Z,2.40
2018-12-25T05:59:18.283Z,2.20
2018-12-25T06:01:45.372Z,2.20
2018-12-25T06:04:12.425Z,1.90
2018-12-25T06:06:39.504Z,2.33
2018-12-25T06:09:06.560Z,2.60
2018-12-25T06:11:33.667Z,2.10
2018-12-25T06:14:00.730Z,2.47
2018-12-25T06:16:27.787Z,2.10
2018-12-25T06:18:55.060Z,2.30
2018-12-25T06:21:22.147Z,2.67
2018-12-25T06:23:49.245Z,2.47
2018-12-25T06:26:16.295Z,2.20
2018-12-25T06:28:43.398Z,2.70
2018-12-25T06:31:10.459Z,2.20
2018-12-25T06:33:37.515Z,1.77
2018-12-25T06:36:04.610Z,2.20
2018-12-25T06:38:31.679Z,2.07
2018-12-25T06:40:58.740Z,2.10
2018-12-25T06:43:25.946Z,1.97
2018-12-25T06:45:53.033Z,2.50
2018-12-25T06:48:20.092Z,2.40
2018-12-25T06:50:47.298Z,2.30
2018-12-25T06:53:14.392Z,2.83
2018-12-25T06:55:52.747Z,1.93
2018-12-25T06:58:20.269Z,2.37
2018-12-25T07:00:56.975Z,2.20
2018-12-25T07:03:25.323Z,2.20
2018-12-25T07:05:59.163Z,2.20
2018-12-25T07:08:26.321Z,3.03
2018-12-25T07:10:53.373Z,3.10
2018-12-25T07:13:20.483Z,2.40
2018-12-25T07:15:47.542Z,2.50
2018-12-25T07:18:19.566Z,2.43
2018-12-25T07:20:50.487Z,2.53
2018-12-25T07:23:21.620Z,2.20
2018-12-25T07:25:52.572Z,2.60
2018-12-25T07:28:30.492Z,2.63
2018-12-25T07:31:01.246Z,2.80
2018-12-25T07:33:43.554Z,2.43
2018-12-25T07:36:22.826Z,2.70
2018-12-25T07:38:53.984Z,2.40
2018-12-25T07:41:33.752Z,2.70
2018-12-25T07:43:59.879Z,2.70
2018-12-25T07:46:31.981Z,2.90
2018-12-25T07:49:07.101Z,2.90
2018-12-25T07:51:39.046Z,3.00
2018-12-25T07:54:08.733Z,2.93
2018-12-25T07:56:41.553Z,2.97
2018-12-25T07:59:08.856Z,2.77
2018-12-25T08:01:46.258Z,2.37
2018-12-25T08:04:17.387Z,3.10
2018-12-25T08:06:47.859Z,2.67
2018-12-25T08:09:17.574Z,3.53
2018-12-25T08:11:52.255Z,2.70
2018-12-25T08:14:17.811Z,2.73
2018-12-25T08:16:45.039Z,3.27
2018-12-25T08:19:12.117Z,3.97
2018-12-25T08:21:39.284Z,3.23
2018-12-25T08:24:06.663Z,2.80
2018-12-25T08:26:33.989Z,2.87
2018-12-25T08:29:01.068Z,3.37
2018-12-25T08:31:28.127Z,2.93
2018-12-25T08:33:55.192Z,2.70
2018-12-25T08:36:22.285Z,3.07
2018-12-25T08:38:49.341Z,3.00
2018-12-25T08:41:16.400Z,2.83
2018-12-25T08:43:45.601Z,2.90
2018-12-25T08:46:12.655Z,2.80
2018-12-25T08:48:39.713Z,3.40
2018-12-25T08:51:10.047Z,2.50
2018-12-25T08:53:46.970Z,2.60
2018-12-25T08:56:26.157Z,2.70
2018-12-25T08:58:50.146Z,3.43
2018-12-25T09:01:19.497Z,2.60
2018-12-25T09:03:54.084Z,2.90
2018-12-25T09:06:30.294Z,2.70
2018-12-25T09:08:56.574Z,2.80
2018-12-25T09:11:23.711Z,3.53
2018-12-25T09:13:50.818Z,4.13
2018-12-25T09:16:17.872Z,4.80
2018-12-25T09:18:53.027Z,3.20
2018-12-25T09:21:22.830Z,2.83
2018-12-25T09:23:58.923Z,3.67
2018-12-25T09:26:32.937Z,6.00
2018-12-25T09:29:05.780Z,4.40
2018-12-25T09:31:36.776Z,3.57
2018-12-25T09:34:08.146Z,4.10
2018-12-25T09:36:38.148Z,3.67
2018-12-25T09:39:09.520Z,3.33
2018-12-25T09:41:40.892Z,3.00
2018-12-25T09:44:10.811Z,3.10
2018-12-25T09:46:42.633Z,3.40
2018-12-25T09:49:13.641Z,3.20
2018-12-25T09:51:40.785Z,3.50
2018-12-25T09:54:07.859Z,2.77
2018-12-25T09:56:35.196Z,3.23
2018-12-25T09:59:03.776Z,3.53
2018-12-25T10:01:30.980Z,2.87
2018-12-25T10:03:58.277Z,3.10
2018-12-25T10:06:25.417Z,3.37
2018-12-25T10:09:04.724Z,2.63
2018-12-25T10:11:44.187Z,3.03
2018-12-25T10:14:08.164Z,3.20
2018-12-25T10:16:44.462Z,3.50
2018-12-25T10:19:14.600Z,3.13
2018-12-25T10:21:41.694Z,2.23
2018-12-25T10:24:08.774Z,2.20
2018-12-25T10:26:35.889Z,2.90
2018-12-25T10:29:02.982Z,2.43
2018-12-25T10:31:30.091Z,2.33
2018-12-25T10:33:57.234Z,2.30
2018-12-25T10:36:24.299Z,2.50
2018-12-25T10:38:51.383Z,2.70
2018-12-25T10:41:18.452Z,2.33
2018-12-25T10:43:45.549Z,2.27
2018-12-25T10:46:12.619Z,2.53
2018-12-25T10:48:39.726Z,2.00
2018-12-25T10:51:06.845Z,2.67
2018-12-25T10:53:34.094Z,2.30
2018-12-25T10:56:01.191Z,2.10
2018-12-25T10:58:28.424Z,2.60
2018-12-25T11:01:00.945Z,1.97
2018-12-25T11:03:33.071Z,2.27
2018-12-25T11:06:06.779Z,2.50
2018-12-25T11:08:36.472Z,2.47
2018-12-25T11:11:13.100Z,2.97
2018-12-25T11:13:44.103Z,2.70
2018-12-25T11:16:16.592Z,2.40
2018-12-25T11:18:50.266Z,2.50
2018-12-25T11:21:22.227Z,2.27
2018-12-25T11:23:53.218Z,2.00
2018-12-25T11:26:24.148Z,2.20
2018-12-25T11:28:57.491Z,2.93
2018-12-25T11:31:26.843Z,2.57
2018-12-25T11:33:57.517Z,2.63
2018-12-25T11:36:26.888Z,2.97
2018-12-25T11:38:57.079Z,2.83
2018-12-25T11:41:28.855Z,2.17
2018-12-25T11:43:58.734Z,1.93
2018-12-25T11:46:29.507Z,2.70
2018-12-25T11:49:02.843Z,2.77
2018-12-25T11:51:32.761Z,2.73
2018-12-25T11:54:07.018Z,2.93
2018-12-25T11:56:39.364Z,2.53
2018-12-25T11:59:11.330Z,2.57
2018-12-25T12:01:41.330Z,2.90
2018-12-25T12:04:13.621Z,2.27
2018-12-25T12:06:47.937Z,2.43
2018-12-25T12:09:17.258Z,2.50
2018-12-25T12:11:55.216Z,2.30
2018-12-25T12:14:28.194Z,2.53
2018-12-25T12:16:55.275Z,2.10
2018-12-25T12:19:22.432Z,3.00
2018-12-25T12:21:49.487Z,2.50
2018-12-25T12:24:16.589Z,2.67
2018-12-25T12:26:43.765Z,4.03
2018-12-25T12:29:11.024Z,2.67
2018-12-25T12:31:38.085Z,2.20
2018-12-25T12:34:05.208Z,2.40
2018-12-25T12:36:32.401Z,2.63
2018-12-25T12:38:59.449Z,2.20
2018-12-25T12:41:26.535Z,2.63
2018-12-25T12:43:53.626Z,2.90
2018-12-25T12:46:20.755Z,2.60
2018-12-25T12:48:48.032Z,2.27
2018-12-25T12:51:15.098Z,2.90
2018-12-25T12:53:42.186Z,2.70
2018-12-25T12:56:09.250Z,3.73
2018-12-25T12:58:36.424Z,4.00
2018-12-25T13:01:03.567Z,5.47
2018-12-25T13:03:30.687Z,5.83
2018-12-25T13:05:57.755Z,5.43
2018-12-25T13:08:25.043Z,4.60
2018-12-25T13:10:52.115Z,5.90
2018-12-25T13:13:19.204Z,3.97
2018-12-25T13:15:46.268Z,4.03
2018-12-25T13:18:13.367Z,4.00
2018-12-25T13:20:40.457Z,4.03
2018-12-25T13:23:07.717Z,3.80
2018-12-25T13:25:34.813Z,3.90
2018-12-25T13:28:02.028Z,3.00
2018-12-25T13:30:29.128Z,3.00
2018-12-25T13:32:56.182Z,3.83
2018-12-25T13:35:23.293Z,4.27
2018-12-25T13:37:50.356Z,3.17
2018-12-25T13:40:17.475Z,3.07
2018-12-25T13:42:44.548Z,3.40
2018-12-25T13:45:11.609Z,3.30
2018-12-25T13:47:38.821Z,3.47
2018-12-25T13:50:05.920Z,3.00
2018-12-25T13:52:33.023Z,3.50
2018-12-25T13:55:00.251Z,2.63
2018-12-25T13:57:27.373Z,3.70
2018-12-25T13:59:54.661Z,3.03
2018-12-25T14:02:22.313Z,2.87
2018-12-25T14:04:49.458Z,2.97
2018-12-25T14:07:16.519Z,3.50
2018-12-25T14:09:43.669Z,3.07
2018-12-25T14:12:10.729Z,3.70
2018-12-25T14:14:37.825Z,3.33
2018-12-25T14:17:04.896Z,2.90
2018-12-25T14:19:32.071Z,3.50
2018-12-25T14:22:00.109Z,2.73
2018-12-25T14:24:27.197Z,3.40
2018-12-25T14:26:54.260Z,3.03
2018-12-25T14:29:21.496Z,3.90
2018-12-25T14:31:48.556Z,2.57
2018-12-25T14:34:16.566Z,3.17
2018-12-25T14:36:43.801Z,3.03
2018-12-25T14:39:10.871Z,2.77
2018-12-25T14:41:38.159Z,3.17
2018-12-25T14:44:05.662Z,2.63
2018-12-25T14:46:33.106Z,2.80
2018-12-25T14:49:00.209Z,2.93
2018-12-25T14:51:27.303Z,2.67
2018-12-25T14:53:54.361Z,2.57
2018-12-25T14:56:21.476Z,2.83
2018-12-25T14:58:48.543Z,2.50
2018-12-25T15:01:15.612Z,2.20
2018-12-25T15:03:42.811Z,2.80
2018-12-25T15:06:09.903Z,2.93
2018-12-25T15:08:36.967Z,2.60
2018-12-25T15:11:04.061Z,2.23
2018-12-25T15:13:31.130Z,2.77
2018-12-25T15:15:58.234Z,2.53
2018-12-25T15:18:27.748Z,2.83
2018-12-25T15:20:54.207Z,3.37
2018-12-25T15:23:28.116Z,2.63
2018-12-25T15:25:50.063Z,2.53
2018-12-25T15:28:17.186Z,2.70
2018-12-25T15:30:44.256Z,2.50
2018-12-25T15:33:11.364Z,2.33
2018-12-25T15:35:38.434Z,2.40
2018-12-25T15:38:05.498Z,2.60
2018-12-25T15:40:32.627Z,2.60
2018-12-25T15:42:59.863Z,2.63
2018-12-25T15:45:26.962Z,2.27
2018-12-25T15:47:54.180Z,2.80
2018-12-25T15:50:21.241Z,2.85
2018-12-25T15:52:48.332Z,3.43
2018-12-25T15:55:15.425Z,2.37
2018-12-25T15:57:42.563Z,2.70
2018-12-25T16:00:09.830Z,2.80
2018-12-25T16:02:36.900Z,2.80
2018-12-25T16:05:04.000Z,3.33
2018-12-25T16:07:31.199Z,3.07
2018-12-25T16:09:58.260Z,3.00
2018-12-25T16:12:25.345Z,3.30
2018-12-25T16:14:52.406Z,2.80
2018-12-25T16:17:20.004Z,2.73
2018-12-25T16:19:47.182Z,3.00
2018-12-25T16:22:14.300Z,3.13
2018-12-25T16:24:41.393Z,3.00
2018-12-25T16:27:08.456Z,2.80
2018-12-25T16:29:35.636Z,2.90
2018-12-25T16:32:02.696Z,2.80
2018-12-25T16:34:29.792Z,2.77
2018-12-25T16:36:56.855Z,2.83
2018-12-25T16:39:23.928Z,3.40
2018-12-25T16:41:51.082Z,3.90
2018-12-25T16:44:18.171Z,2.90
2018-12-25T16:46:45.406Z,3.23
2018-12-25T16:49:12.495Z,2.67
2018-12-25T16:51:39.559Z,2.87
2018-12-25T16:54:06.663Z,3.10
2018-12-25T16:56:33.743Z,3.10
2018-12-25T16:59:00.824Z,3.50
2018-12-25T17:01:28.074Z,2.97
2018-12-25T17:03:55.124Z,2.70
2018-12-25T17:06:22.257Z,2.60
2018-12-25T17:08:49.310Z,3.03
2018-12-25T17:11:16.396Z,3.50
2018-12-25T17:13:43.461Z,2.90
2018-12-25T17:16:10.552Z,2.93
2018-12-25T17:18:37.649Z,3.10
2018-12-25T17:21:04.718Z,3.40
2018-12-25T17:23:31.809Z,2.93
2018-12-25T17:25:58.868Z,3.30
2018-12-25T17:28:27.934Z,3.27
2018-12-25T17:30:54.773Z,3.00
2018-12-25T17:33:21.827Z,3.63
2018-12-25T17:35:48.920Z,3.33
2018-12-25T17:38:15.991Z,3.53
2018-12-25T17:40:43.038Z,3.57
2018-12-25T17:43:10.157Z,3.10
2018-12-25T17:45:37.220Z,3.30
2018-12-25T17:48:04.430Z,3.73
2018-12-25T17:50:31.660Z,3.57
2018-12-25T17:52:58.759Z,3.63
2018-12-25T17:55:25.859Z,3.20
2018-12-25T17:57:52.961Z,3.00
2018-12-25T18:00:20.028Z,3.90
2018-12-25T18:02:47.134Z,3.80
2018-12-25T18:05:14.194Z,3.70
2018-12-25T18:07:41.260Z,3.83
2018-12-25T18:10:08.486Z,3.50
2018-12-25T18:12:35.536Z,3.40
2018-12-25T18:15:02.651Z,3.43
2018-12-25T18:17:30.577Z,3.73
2018-12-25T18:19:57.638Z,3.57
2018-12-25T18:22:26.186Z,3.80
2018-12-25T18:24:53.572Z,3.33
2018-12-25T18:27:20.629Z,3.60
2018-12-25T18:29:47.694Z,3.73
2018-12-25T18:32:14.987Z,2.97
2018-12-25T18:34:42.083Z,3.33
2018-12-25T18:37:09.136Z,3.77
2018-12-25T18:39:36.204Z,3.57
2018-12-25T18:42:03.387Z,3.40
2018-12-25T18:44:30.489Z,4.40
2018-12-25T18:46:57.674Z,3.80
2018-12-25T18:49:24.907Z,3.47
2018-12-25T18:51:51.973Z,3.70
2018-12-25T18:54:27.617Z,3.73
2018-12-25T18:56:47.833Z,3.90
2018-12-25T18:59:14.966Z,3.77
2018-12-25T19:01:42.035Z,3.87
2018-12-25T19:04:09.139Z,3.50
2018-12-25T19:06:36.195Z,3.90
2018-12-25T19:09:03.390Z,3.80
2018-12-25T19:11:30.478Z,3.50
2018-12-25T19:13:57.557Z,4.20
2018-12-25T19:16:24.654Z,3.63
2018-12-25T19:18:51.724Z,4.57
2018-12-25T19:21:18.809Z,3.70
2018-12-25T19:23:45.874Z,3.90
2018-12-25T19:26:12.972Z,4.50
2018-12-25T19:28:40.059Z,3.93
2018-12-25T19:31:07.148Z,4.10
2018-12-25T19:33:34.245Z,4.53
2018-12-25T19:36:01.351Z,3.70
2018-12-25T19:38:28.410Z,3.80
2018-12-25T19:40:55.668Z,4.83
2018-12-25T19:43:22.743Z,4.57
2018-12-25T19:45:49.798Z,3.70
2018-12-25T19:48:16.946Z,3.70
2018-12-25T19:50:44.037Z,4.43
2018-12-25T19:53:11.128Z,4.53
2018-12-25T19:55:38.197Z,4.30
2018-12-25T19:58:05.335Z,3.87
2018-12-25T20:00:32.425Z,3.93
2018-12-25T20:02:59.639Z,4.13
2018-12-25T20:05:26.740Z,4.10
2018-12-25T20:07:53.787Z,4.27
2018-12-25T20:10:20.983Z,5.30
2018-12-25T20:12:48.054Z,4.63
2018-12-25T20:15:15.122Z,4.37
2018-12-25T20:17:42.338Z,5.20
2018-12-25T20:20:09.396Z,4.63
2018-12-25T20:22:37.818Z,4.30
2018-12-25T20:25:05.033Z,4.57
2018-12-25T20:27:32.111Z,3.80
2018-12-25T20:29:59.214Z,4.57
2018-12-25T20:32:26.601Z,6.30
2018-12-25T20:34:53.701Z,6.03
2018-12-25T20:37:20.763Z,4.90
2018-12-25T20:39:47.887Z,4.30
2018-12-25T20:42:14.953Z,4.10
2018-12-25T20:44:42.016Z,4.93
2018-12-25T20:47:09.163Z,4.33
2018-12-25T20:49:36.272Z,4.20
2018-12-25T20:52:04.925Z,4.60
2018-12-25T20:54:31.996Z,4.80
2018-12-25T20:56:59.061Z,5.40
2018-12-25T20:59:26.258Z,5.47
2018-12-25T21:01:53.309Z,5.07
2018-12-25T21:04:20.422Z,4.93
2018-12-25T21:06:47.495Z,4.73
2018-12-25T21:09:14.640Z,4.70
2018-12-25T21:11:41.727Z,5.10
2018-12-25T21:14:10.486Z,4.90
2018-12-25T21:16:37.822Z,4.20
2018-12-25T21:19:05.140Z,5.00
2018-12-25T21:21:32.225Z,4.63
2018-12-25T21:23:59.323Z,5.27
2018-12-25T21:26:26.397Z,4.63
2018-12-25T21:28:53.692Z,4.97
2018-12-25T21:31:20.770Z,4.93
2018-12-25T21:33:47.865Z,5.10
2018-12-25T21:36:15.241Z,4.87
2018-12-25T21:38:42.313Z,4.50
2018-12-25T21:41:09.397Z,5.40
2018-12-25T21:43:36.480Z,4.80
2018-12-25T21:46:03.647Z,5.20
2018-12-25T21:48:30.897Z,4.70
2018-12-25T21:50:57.958Z,4.90
2018-12-25T21:53:25.067Z,5.23
2018-12-25T21:55:52.126Z,5.27
2018-12-25T21:58:19.497Z,4.97
2018-12-25T22:00:46.588Z,4.70
2018-12-25T22:03:13.710Z,5.07
2018-12-25T22:05:40.797Z,4.50
2018-12-25T22:08:08.085Z,4.33
2018-12-25T22:10:35.189Z,4.40
2018-12-25T22:13:02.258Z,5.27
2018-12-25T22:15:29.319Z,4.63
2018-12-25T22:17:56.482Z,4.70
2018-12-25T22:20:23.579Z,4.60
2018-12-25T22:22:50.730Z,5.30
2018-12-25T22:25:18.006Z,4.50
2018-12-25T22:27:45.070Z,5.07
2018-12-25T22:30:12.345Z,8.63
2018-12-25T22:32:39.435Z,10.30
2018-12-25T22:35:06.625Z,8.83
2018-12-25T22:37:33.745Z,11.47
2018-12-25T22:40:00.825Z,10.37
2018-12-25T22:42:27.937Z,8.60
2018-12-25T22:44:55.007Z,9.60
2018-12-25T22:47:22.470Z,9.10
2018-12-25T22:49:49.778Z,7.40
2018-12-25T22:52:16.821Z,7.60
2018-12-25T22:54:43.883Z,8.53
2018-12-25T22:57:11.077Z,8.70
2018-12-25T22:59:38.139Z,8.30
2018-12-25T23:02:05.303Z,6.77
2018-12-25T23:04:32.639Z,7.10
2018-12-25T23:06:59.911Z,7.70
2018-12-25T23:09:27.030Z,7.33
2018-12-25T23:11:54.096Z,7.73
2018-12-25T23:14:21.191Z,7.20
2018-12-25T23:16:48.257Z,7.30
2018-12-25T23:19:15.557Z,6.60
2018-12-25T23:21:42.764Z,6.67
2018-12-25T23:24:09.904Z,7.20
2018-12-25T23:26:37.098Z,6.03
2018-12-25T23:29:04.165Z,6.90
2018-12-25T23:31:31.227Z,6.70
2018-12-25T23:33:59.422Z,6.10
2018-12-25T23:36:26.605Z,5.77
2018-12-25T23:38:53.668Z,6.30
2018-12-25T23:41:20.744Z,6.50
2018-12-25T23:43:47.810Z,6.17
2018-12-25T23:46:14.877Z,6.20
2018-12-25T23:48:42.159Z,5.33
2018-12-25T23:51:09.245Z,5.70
2018-12-25T23:53:36.313Z,5.37
2018-12-25T23:56:03.403Z,5.83
2018-12-25T23:58:30.497Z,6.30
